Terminal Aerodrome Forecast
Issued by NWS

Home | Current Version | Previous Version | Text Only | Print | Product List | Glossary On
Versions: 1 2 3 4 5 6 7 8 9 10 11 12 13 14 15 16 17 18 19 20
000
FTUS41 KBTV 230541
TAFSLK
TAF
KSLK 230541Z 2306/2406 24010KT P6SM VCSH SCT009 BKN015 OVC020
     FM231000 25010G17KT P6SM SCT008 BKN012
     FM231400 25011G20KT P6SM BKN040
     FM231700 26013G20KT P6SM SCT045
     FM240300 26006KT P6SM BKN040=

USA.gov is the U.S. government's official web portal to all federal, state and local government web resources and services.